createdAt,value
2018-01-08T06:47:44.223Z,80.10
2018-01-08T06:50:20.730Z,80.20
2018-01-08T06:52:56.993Z,80.20
2018-01-08T06:55:38.362Z,80.20
2018-01-08T06:58:12.106Z,79.70
2018-01-08T07:00:53.221Z,79.50
2018-01-08T07:03:26.809Z,79.80
2018-01-08T07:06:01.199Z,79.90
2018-01-08T07:08:35.666Z,79.90
2018-01-08T07:11:09.600Z,79.60
2018-01-08T07:13:41.765Z,79.70
2018-01-08T07:16:13.267Z,79.70
2018-01-08T07:18:45.370Z,79.80
2018-01-08T07:21:18.391Z,79.60
2018-01-08T07:23:51.275Z,79.60
2018-01-08T07:26:22.736Z,79.40
2018-01-08T07:28:59.072Z,80.10
2018-01-08T07:31:31.126Z,79.30
2018-01-08T07:34:07.518Z,80.80
2018-01-08T07:36:39.276Z,80.70
2018-01-08T07:39:10.535Z,79.90
2018-01-08T07:41:42.254Z,80.30
2018-01-08T07:44:14.562Z,80.20
2018-01-08T07:46:45.486Z,80.30
2018-01-08T07:49:17.504Z,80.00
2018-01-08T07:51:48.728Z,79.80
2018-01-08T07:54:21.932Z,80.80
2018-01-08T07:56:56.859Z,79.40
2018-01-08T07:59:32.413Z,79.90
2018-01-08T08:03:28.253Z,79.60
2018-01-08T08:06:04.493Z,79.10
2018-01-08T08:08:49.672Z,79.20
2018-01-08T08:11:26.268Z,78.90
2018-01-08T08:13:59.533Z,78.90
2018-01-08T08:16:32.159Z,79.00
2018-01-08T08:19:04.666Z,79.40
2018-01-08T08:21:35.678Z,79.10
2018-01-08T08:24:11.386Z,77.90
2018-01-08T08:26:44.833Z,77.80
2018-01-08T08:29:17.625Z,77.90
2018-01-08T08:31:50.508Z,78.00
2018-01-08T08:34:22.850Z,77.00
2018-01-08T08:36:56.284Z,77.40
2018-01-08T08:39:29.179Z,77.40
2018-01-08T08:42:00.918Z,77.00
2018-01-08T08:44:35.276Z,77.60
2018-01-08T08:47:09.993Z,76.90
2018-01-08T08:49:46.261Z,76.90
2018-01-08T08:52:21.896Z,77.00
2018-01-08T08:54:54.430Z,76.90
2018-01-08T08:57:27.053Z,77.20
2018-01-08T08:59:59.772Z,77.20
2018-01-08T09:02:31.262Z,77.30
2018-01-08T09:05:03.973Z,76.60
2018-01-08T09:07:36.493Z,76.80
2018-01-08T09:10:08.710Z,76.40
2018-01-08T09:12:41.263Z,76.50
2018-01-08T09:15:12.945Z,76.10
2018-01-08T09:17:45.373Z,76.10
2018-01-08T09:20:17.412Z,76.50
2018-01-08T09:22:49.908Z,76.50
2018-01-08T09:25:24.471Z,75.80
2018-01-08T09:27:56.857Z,76.20
2018-01-08T09:30:30.023Z,75.70
2018-01-08T09:33:06.643Z,75.70
2018-01-08T09:35:39.774Z,75.70
2018-01-08T09:38:13.458Z,75.50
2018-01-08T09:41:11.180Z,75.00
2018-01-08T09:43:43.957Z,75.00
2018-01-08T09:46:17.297Z,74.70
2018-01-08T09:49:04.238Z,75.40
2018-01-08T09:51:38.567Z,75.50
2018-01-08T09:54:13.121Z,74.90
2018-01-08T09:56:53.495Z,74.80
2018-01-08T09:59:25.699Z,75.20
2018-01-08T10:01:58.618Z,76.10
2018-01-08T10:04:40.676Z,75.80
2018-01-08T10:07:23.922Z,75.10
2018-01-08T10:10:09.065Z,74.90
2018-01-08T10:12:53.025Z,74.80
2018-01-08T10:15:36.242Z,74.60
2018-01-08T10:18:19.072Z,74.90
2018-01-08T10:20:54.713Z,75.20
2018-01-08T10:23:32.720Z,76.20
2018-01-08T10:26:07.443Z,76.20
2018-01-08T10:28:45.883Z,76.00
2018-01-08T10:31:29.315Z,75.90
2018-01-08T10:34:01.416Z,75.90
2018-01-08T10:36:37.064Z,75.40
2018-01-08T10:39:17.083Z,74.80
2018-01-08T10:41:56.426Z,74.50
2018-01-08T10:44:34.691Z,74.80
2018-01-08T10:47:15.447Z,74.50
2018-01-08T10:49:55.091Z,74.50
2018-01-08T10:52:38.783Z,73.80
2018-01-08T10:55:24.190Z,73.30
2018-01-08T10:57:57.417Z,73.30
2018-01-08T11:00:33.609Z,73.10
2018-01-08T11:04:13.495Z,73.10
2018-01-08T11:06:54.714Z,73.80
2018-01-08T11:09:37.553Z,73.30
2018-01-08T11:12:13.867Z,73.10
2018-01-08T11:14:48.387Z,73.70
2018-01-08T11:17:26.715Z,73.20
2018-01-08T11:20:02.028Z,73.10
2018-01-08T11:22:37.187Z,73.10
2018-01-08T11:25:11.467Z,73.30
2018-01-08T11:27:50.150Z,73.00
2018-01-08T11:30:24.372Z,73.50
2018-01-08T11:33:05.712Z,73.50
2018-01-08T11:35:39.520Z,73.50
2018-01-08T11:38:13.107Z,74.60
2018-01-08T11:40:45.438Z,75.60
2018-01-08T11:43:19.487Z,74.90
2018-01-08T11:45:57.152Z,74.90
2018-01-08T11:48:29.787Z,74.30
2018-01-08T11:51:06.478Z,73.90
2018-01-08T11:53:41.473Z,74.00
2018-01-08T11:56:14.864Z,73.10
2018-01-08T11:58:48.184Z,73.00
2018-01-08T12:01:21.551Z,73.50
2018-01-08T12:03:54.256Z,73.40
2018-01-08T12:06:27.345Z,73.50
2018-01-08T12:09:03.835Z,74.00
2018-01-08T12:11:36.937Z,74.60
2018-01-08T12:14:11.416Z,74.50
2018-01-08T12:16:49.835Z,73.30
2018-01-08T12:19:22.994Z,74.90
2018-01-08T12:21:55.178Z,74.90
2018-01-08T12:24:28.110Z,74.30
2018-01-08T12:27:00.739Z,74.80
2018-01-08T12:29:33.190Z,73.60
2018-01-08T12:32:06.658Z,73.10
2018-01-08T12:34:39.258Z,72.50
2018-01-08T12:37:14.307Z,72.10
2018-01-08T12:39:47.341Z,71.80
2018-01-08T12:42:26.098Z,72.50
2018-01-08T12:45:02.103Z,71.20
2018-01-08T12:47:36.801Z,71.20
2018-01-08T12:50:08.837Z,71.40
2018-01-08T12:52:43.049Z,72.10
2018-01-08T12:55:17.366Z,72.40
2018-01-08T12:57:50.332Z,72.70
2018-01-08T13:00:22.761Z,72.70
2018-01-08T13:02:54.984Z,72.70
2018-01-08T13:05:38.592Z,72.20
2018-01-08T13:08:11.800Z,72.50
2018-01-08T13:10:44.324Z,72.20
2018-01-08T13:13:20.985Z,71.80
2018-01-08T13:15:59.030Z,71.60
2018-01-08T13:18:30.558Z,71.10
2018-01-08T13:21:06.942Z,71.10
2018-01-08T13:23:39.308Z,70.90
2018-01-08T13:26:13.819Z,71.50
2018-01-08T13:28:45.276Z,71.90
2018-01-08T13:31:18.497Z,71.90
2018-01-08T13:33:51.351Z,71.50
2018-01-08T13:36:25.068Z,71.40
2018-01-08T13:38:59.385Z,71.10
2018-01-08T13:44:15.851Z,71.00
2018-01-08T13:46:53.204Z,71.50
2018-01-08T13:49:31.795Z,71.40
2018-01-08T13:52:08.969Z,71.60
2018-01-08T13:54:49.010Z,71.70
2018-01-08T13:57:27.159Z,71.60
2018-01-08T14:00:01.113Z,71.30
2018-01-08T14:02:35.051Z,71.00
2018-01-08T14:05:09.499Z,70.70
2018-01-08T14:07:42.483Z,71.00
2018-01-08T14:10:14.431Z,70.30
2018-01-08T14:12:46.070Z,71.60
2018-01-08T14:15:18.834Z,71.60
2018-01-08T14:17:53.293Z,71.10
2018-01-08T14:20:27.169Z,71.10
2018-01-08T14:23:01.725Z,71.50
2018-01-08T14:25:34.107Z,71.50
2018-01-08T14:28:07.411Z,71.60
2018-01-08T14:30:38.841Z,71.60
2018-01-08T14:33:11.806Z,71.30
2018-01-08T14:35:44.118Z,71.00
2018-01-08T14:38:17.680Z,71.20
2018-01-08T14:40:50.549Z,71.10
2018-01-08T14:43:22.671Z,71.10
2018-01-08T14:45:58.098Z,70.80
2018-01-08T14:48:31.566Z,70.50
2018-01-08T14:51:05.820Z,70.80
2018-01-08T14:53:39.399Z,71.20
2018-01-08T14:56:15.403Z,70.60
2018-01-08T14:58:48.783Z,70.80
2018-01-08T15:01:24.316Z,70.80
2018-01-08T15:03:57.463Z,71.30
2018-01-08T15:06:30.184Z,71.70
2018-01-08T15:09:04.852Z,71.70
2018-01-08T15:11:36.674Z,71.70
2018-01-08T15:14:12.003Z,72.20
2018-01-08T15:16:46.027Z,72.30
2018-01-08T15:19:20.197Z,72.30
2018-01-08T15:21:52.175Z,71.60
2018-01-08T15:24:23.899Z,71.60
2018-01-08T15:26:56.799Z,71.60
2018-01-08T15:29:30.592Z,71.80
2018-01-08T15:32:04.966Z,71.50
2018-01-08T15:34:41.171Z,71.40
2018-01-08T15:37:12.835Z,71.30
2018-01-08T15:39:45.380Z,71.70
2018-01-08T15:42:16.666Z,71.40
2018-01-08T15:44:48.743Z,72.80
2018-01-08T15:47:22.157Z,72.70
2018-01-08T15:49:54.878Z,73.50
2018-01-08T15:52:28.136Z,73.50
2018-01-08T15:55:02.943Z,74.40
2018-01-08T15:57:35.530Z,72.50
2018-01-08T16:00:13.360Z,71.90
2018-01-08T16:02:46.524Z,71.90
2018-01-08T16:05:19.837Z,72.20
2018-01-08T16:07:52.015Z,72.30
2018-01-08T16:10:25.014Z,72.40
2018-01-08T16:12:56.713Z,72.30
2018-01-08T16:15:29.298Z,71.50
2018-01-08T16:18:01.891Z,71.50
2018-01-08T16:20:34.253Z,71.30
2018-01-08T16:23:07.837Z,71.50
2018-01-08T16:25:39.702Z,71.40
2018-01-08T16:28:12.599Z,70.70
2018-01-08T16:30:47.783Z,71.00
2018-01-08T16:33:21.041Z,71.30
2018-01-08T16:35:55.091Z,72.10
2018-01-08T16:38:27.286Z,71.50
2018-01-08T16:40:59.928Z,71.70
2018-01-08T16:43:31.137Z,71.40
2018-01-08T16:46:02.947Z,71.30
2018-01-08T16:48:35.017Z,71.60
2018-01-08T16:51:11.410Z,71.50
2018-01-08T16:53:45.007Z,71.50
2018-01-08T16:56:17.456Z,71.90
2018-01-08T16:58:50.747Z,72.00
2018-01-08T17:01:26.949Z,71.90
2018-01-08T17:03:58.882Z,72.30
2018-01-08T17:06:31.736Z,72.30
2018-01-08T17:09:05.299Z,72.20
2018-01-08T17:11:39.779Z,72.10
2018-01-08T17:14:11.555Z,71.60
2018-01-08T17:16:48.135Z,71.50
2018-01-08T17:19:21.124Z,71.90
2018-01-08T17:21:53.025Z,71.60
2018-01-08T17:24:26.926Z,71.60
2018-01-08T17:27:00.772Z,71.60
2018-01-08T17:29:37.458Z,71.00
2018-01-08T17:32:10.863Z,71.30
2018-01-08T17:34:43.380Z,71.40
2018-01-08T17:37:18.709Z,71.40
2018-01-08T17:39:50.696Z,71.20
2018-01-08T17:42:21.593Z,71.20
2018-01-08T17:44:54.545Z,71.10
2018-01-08T17:47:26.607Z,71.20
2018-01-08T17:49:58.995Z,71.10
2018-01-08T17:52:31.433Z,71.00
2018-01-08T17:55:03.225Z,70.80
2018-01-08T17:57:35.789Z,70.90
2018-01-08T18:00:09.887Z,71.10
2018-01-08T18:02:40.941Z,71.20
2018-01-08T18:05:13.710Z,70.50
2018-01-08T18:07:45.174Z,70.30
2018-01-08T18:10:16.696Z,70.80
2018-01-08T18:12:49.970Z,71.10
2018-01-08T18:15:23.079Z,70.70
2018-01-08T18:17:55.825Z,70.60
2018-01-08T18:20:30.422Z,70.70
2018-01-08T18:23:02.279Z,70.70
2018-01-08T18:25:41.500Z,70.80
2018-01-08T18:28:13.333Z,71.00
2018-01-08T18:30:44.989Z,71.00
2018-01-08T18:33:16.739Z,71.00
2018-01-08T18:35:49.652Z,71.70
2018-01-08T18:38:22.090Z,71.40
2018-01-08T18:40:57.106Z,71.70
2018-01-08T18:43:29.850Z,71.70
2018-01-08T19:29:44.049Z,71.70
2018-01-08T19:32:17.127Z,72.10
2018-01-08T19:34:50.105Z,72.10
2018-01-08T19:37:22.263Z,72.00
2018-01-08T19:39:56.157Z,71.90
2018-01-08T19:42:28.046Z,71.70
2018-01-08T19:44:58.989Z,71.90
2018-01-08T19:47:30.130Z,71.50
2018-01-08T19:50:01.898Z,71.70
2018-01-08T19:52:34.551Z,71.50
2018-01-08T19:55:07.439Z,71.50
2018-01-08T19:57:38.211Z,71.70
2018-01-08T20:00:10.510Z,71.50
2018-01-08T20:02:45.768Z,71.70
2018-01-08T20:05:17.011Z,72.00
2018-01-08T20:07:52.981Z,72.20
2018-01-08T20:10:24.518Z,72.30
2018-01-08T20:12:55.278Z,71.90
2018-01-08T20:15:32.694Z,71.80
2018-01-08T20:18:04.182Z,71.80
2018-01-08T20:20:36.939Z,72.10
2018-01-08T20:23:32.515Z,72.20
2018-01-08T20:26:03.590Z,72.10
2018-01-08T20:28:38.233Z,72.10
2018-01-08T20:31:12.490Z,72.20
2018-01-08T20:33:43.945Z,72.20
2018-01-08T20:36:15.423Z,71.70
2018-01-08T20:38:47.430Z,71.90
2018-01-08T20:41:18.396Z,71.90
2018-01-08T20:43:49.667Z,72.00
2018-01-08T20:46:21.011Z,71.70
2018-01-08T20:48:52.411Z,71.90
2018-01-08T20:51:25.114Z,72.00
2018-01-08T20:53:58.784Z,70.50
2018-01-08T20:56:30.458Z,71.80
2018-01-08T20:59:03.684Z,71.90
2018-01-08T21:01:34.864Z,71.70
2018-01-08T21:04:05.682Z,73.10
2018-01-08T21:06:37.207Z,72.30
2018-01-08T21:09:11.562Z,72.50
2018-01-08T21:11:44.036Z,72.60
2018-01-08T21:14:15.455Z,72.60
2018-01-08T21:16:48.097Z,72.50
2018-01-08T21:19:19.501Z,72.60
2018-01-08T21:22:05.871Z,72.40
2018-01-08T21:24:38.404Z,72.40
2018-01-08T21:34:05.380Z,72.60
2018-01-08T21:36:37.419Z,73.20
2018-01-08T21:39:10.513Z,72.30
2018-01-08T21:41:44.097Z,72.30
2018-01-08T21:44:16.925Z,72.40
2018-01-08T21:46:48.402Z,72.30
2018-01-08T21:49:19.700Z,72.20
2018-01-08T21:51:53.431Z,72.80
2018-01-08T21:54:26.271Z,72.90
2018-01-08T21:56:59.908Z,73.00
2018-01-08T21:59:32.182Z,72.90
2018-01-08T22:02:04.698Z,72.70
2018-01-08T22:04:36.996Z,73.00
2018-01-08T22:07:10.180Z,73.20
2018-01-08T22:09:43.524Z,73.20
2018-01-08T22:12:16.638Z,73.30
2018-01-08T22:14:49.456Z,73.00
2018-01-08T22:17:23.293Z,73.30
2018-01-08T22:19:55.519Z,73.30
2018-01-08T22:22:27.871Z,73.60
2018-01-08T22:25:00.311Z,73.30
2018-01-08T22:27:31.696Z,73.20
2018-01-08T22:30:04.995Z,72.80
2018-01-08T22:32:36.654Z,72.70
2018-01-08T22:35:09.179Z,72.60
2018-01-08T22:37:41.143Z,72.50
2018-01-08T22:40:13.624Z,72.50
2018-01-08T22:42:45.000Z,72.60
2018-01-08T22:45:17.464Z,72.10
2018-01-08T22:47:51.625Z,71.90
2018-01-08T22:50:24.248Z,72.60
2018-01-08T22:52:56.724Z,71.90
2018-01-08T22:55:28.713Z,71.90
2018-01-08T22:58:02.265Z,71.90
2018-01-08T23:00:36.072Z,71.90
2018-01-08T23:03:10.510Z,71.70
2018-01-08T23:05:42.027Z,71.80
2018-01-08T23:08:16.677Z,71.60
2018-01-08T23:10:50.607Z,71.50
2018-01-08T23:13:22.052Z,70.50
2018-01-08T23:15:54.410Z,71.80
2018-01-08T23:18:26.815Z,72.60
2018-01-08T23:20:58.425Z,71.70
2018-01-08T23:23:31.525Z,71.70
2018-01-08T23:26:03.118Z,71.60
2018-01-08T23:28:36.779Z,71.50
2018-01-08T23:31:09.893Z,71.40
2018-01-08T23:33:42.144Z,72.80
2018-01-08T23:36:15.825Z,71.20
2018-01-08T23:38:49.304Z,71.30
2018-01-08T23:41:22.217Z,71.20
2018-01-08T23:43:55.752Z,71.20
2018-01-08T23:46:28.309Z,71.20
2018-01-08T23:49:00.118Z,71.20
2018-01-08T23:51:32.221Z,72.00
2018-01-08T23:54:04.735Z,71.60
2018-01-08T23:56:37.212Z,71.60
2018-01-08T23:59:08.893Z,71.30
